sensor_id;sensor_type;location;lat;lon;timestamp;temperature;humidity
40932;DHT22;36257;46.052;12.540;2023-08-07T00:00:35;15.90;99.90
40932;DHT22;36257;46.052;12.540;2023-08-07T00:03:01;16.00;97.60
40932;DHT22;36257;46.052;12.540;2023-08-07T00:05:28;16.00;95.10
40932;DHT22;36257;46.052;12.540;2023-08-07T00:07:53;16.00;95.20
40932;DHT22;36257;46.052;12.540;2023-08-07T00:10:19;16.10;95.10
40932;DHT22;36257;46.052;12.540;2023-08-07T00:12:45;16.10;95.10
40932;DHT22;36257;46.052;12.540;2023-08-07T00:15:11;16.20;94.70
40932;DHT22;36257;46.052;12.540;2023-08-07T00:17:37;16.20;91.80
40932;DHT22;36257;46.052;12.540;2023-08-07T00:20:04;16.30;92.10
40932;DHT22;36257;46.052;12.540;2023-08-07T00:22:30;16.40;90.90
40932;DHT22;36257;46.052;12.540;2023-08-07T00:24:55;16.40;90.20
40932;DHT22;36257;46.052;12.540;2023-08-07T00:27:21;16.50;89.60
40932;DHT22;36257;46.052;12.540;2023-08-07T00:29:47;16.60;89.20
40932;DHT22;36257;46.052;12.540;2023-08-07T00:32:12;16.70;88.70
40932;DHT22;36257;46.052;12.540;2023-08-07T00:34:38;16.80;89.30
40932;DHT22;36257;46.052;12.540;2023-08-07T00:37:04;16.80;89.10
40932;DHT22;36257;46.052;12.540;2023-08-07T00:39:30;16.90;90.70
40932;DHT22;36257;46.052;12.540;2023-08-07T00:41:56;16.80;92.10
40932;DHT22;36257;46.052;12.540;2023-08-07T00:44:21;16.70;92.50
40932;DHT22;36257;46.052;12.540;2023-08-07T00:46:48;16.70;92.00
40932;DHT22;36257;46.052;12.540;2023-08-07T00:49:14;16.70;92.20
40932;DHT22;36257;46.052;12.540;2023-08-07T00:51:41;16.50;93.50
40932;DHT22;36257;46.052;12.540;2023-08-07T00:54:07;16.40;93.70
40932;DHT22;36257;46.052;12.540;2023-08-07T00:56:35;16.30;94.40
40932;DHT22;36257;46.052;12.540;2023-08-07T00:59:01;16.20;95.80
40932;DHT22;36257;46.052;12.540;2023-08-07T01:01:27;16.20;96.20
40932;DHT22;36257;46.052;12.540;2023-08-07T01:03:53;16.10;97.10
40932;DHT22;36257;46.052;12.540;2023-08-07T01:06:19;16.00;96.70
40932;DHT22;36257;46.052;12.540;2023-08-07T01:08:45;15.90;96.80
40932;DHT22;36257;46.052;12.540;2023-08-07T01:14:15;15.70;98.80
40932;DHT22;36257;46.052;12.540;2023-08-07T01:19:29;15.60;98.50
40932;DHT22;36257;46.052;12.540;2023-08-07T01:24:36;15.60;99.70
40932;DHT22;36257;46.052;12.540;2023-08-07T01:32:10;15.30;99.40
40932;DHT22;36257;46.052;12.540;2023-08-07T01:34:37;15.30;98.70
40932;DHT22;36257;46.052;12.540;2023-08-07T01:37:07;15.20;99.30
40932;DHT22;36257;46.052;12.540;2023-08-07T01:39:35;15.20;99.90
40932;DHT22;36257;46.052;12.540;2023-08-07T01:42:02;15.10;99.90
40932;DHT22;36257;46.052;12.540;2023-08-07T01:44:30;15.10;99.90
40932;DHT22;36257;46.052;12.540;2023-08-07T01:46:56;15.00;99.90
40932;DHT22;36257;46.052;12.540;2023-08-07T01:49:21;15.00;99.90
40932;DHT22;36257;46.052;12.540;2023-08-07T01:51:47;14.90;99.90
40932;DHT22;36257;46.052;12.540;2023-08-07T01:54:13;14.90;99.90
40932;DHT22;36257;46.052;12.540;2023-08-07T01:56:38;14.90;98.70
40932;DHT22;36257;46.052;12.540;2023-08-07T01:59:04;14.90;96.70
40932;DHT22;36257;46.052;12.540;2023-08-07T02:01:29;14.90;95.60
40932;DHT22;36257;46.052;12.540;2023-08-07T02:03:55;14.90;96.40
40932;DHT22;36257;46.052;12.540;2023-08-07T02:06:21;14.90;96.70
40932;DHT22;36257;46.052;12.540;2023-08-07T02:08:47;14.90;97.10
40932;DHT22;36257;46.052;12.540;2023-08-07T02:11:12;14.90;96.90
40932;DHT22;36257;46.052;12.540;2023-08-07T02:13:38;14.90;96.70
40932;DHT22;36257;46.052;12.540;2023-08-07T02:16:04;14.90;96.50
40932;DHT22;36257;46.052;12.540;2023-08-07T02:18:29;14.80;97.30
40932;DHT22;36257;46.052;12.540;2023-08-07T02:20:55;14.80;97.50
40932;DHT22;36257;46.052;12.540;2023-08-07T02:23:21;14.80;96.90
40932;DHT22;36257;46.052;12.540;2023-08-07T02:25:47;14.70;96.90
40932;DHT22;36257;46.052;12.540;2023-08-07T02:28:13;14.70;95.90
40932;DHT22;36257;46.052;12.540;2023-08-07T02:30:39;14.70;96.20
40932;DHT22;36257;46.052;12.540;2023-08-07T02:33:04;14.70;97.30
40932;DHT22;36257;46.052;12.540;2023-08-07T02:35:30;14.60;97.80
40932;DHT22;36257;46.052;12.540;2023-08-07T02:37:55;14.50;98.30
40932;DHT22;36257;46.052;12.540;2023-08-07T02:40:21;14.50;99.40
40932;DHT22;36257;46.052;12.540;2023-08-07T02:42:47;14.40;99.90
40932;DHT22;36257;46.052;12.540;2023-08-07T02:45:12;14.30;99.90
40932;DHT22;36257;46.052;12.540;2023-08-07T02:47:38;14.20;99.90
40932;DHT22;36257;46.052;12.540;2023-08-07T02:50:04;14.10;99.90
40932;DHT22;36257;46.052;12.540;2023-08-07T02:52:30;14.20;99.90
40932;DHT22;36257;46.052;12.540;2023-08-07T02:54:55;14.10;99.90
40932;DHT22;36257;46.052;12.540;2023-08-07T02:57:21;14.10;99.90
40932;DHT22;36257;46.052;12.540;2023-08-07T02:59:46;14.10;99.90
40932;DHT22;36257;46.052;12.540;2023-08-07T03:02:12;14.20;99.90
40932;DHT22;36257;46.052;12.540;2023-08-07T03:04:38;14.30;99.50
40932;DHT22;36257;46.052;12.540;2023-08-07T03:07:04;14.30;99.30
40932;DHT22;36257;46.052;12.540;2023-08-07T03:09:29;14.30;99.90
40932;DHT22;36257;46.052;12.540;2023-08-07T03:11:55;14.20;99.90
40932;DHT22;36257;46.052;12.540;2023-08-07T03:14:21;14.20;99.90
40932;DHT22;36257;46.052;12.540;2023-08-07T03:16:46;14.20;99.90
40932;DHT22;36257;46.052;12.540;2023-08-07T03:19:12;14.20;99.90
40932;DHT22;36257;46.052;12.540;2023-08-07T03:21:38;14.20;99.90
40932;DHT22;36257;46.052;12.540;2023-08-07T03:24:04;14.20;99.90
40932;DHT22;36257;46.052;12.540;2023-08-07T03:26:30;14.20;99.90
40932;DHT22;36257;46.052;12.540;2023-08-07T03:28:55;14.20;99.90
40932;DHT22;36257;46.052;12.540;2023-08-07T03:31:21;14.30;99.40
40932;DHT22;36257;46.052;12.540;2023-08-07T03:33:46;14.30;99.60
40932;DHT22;36257;46.052;12.540;2023-08-07T03:36:12;14.30;99.90
40932;DHT22;36257;46.052;12.540;2023-08-07T03:38:38;14.20;99.80
40932;DHT22;36257;46.052;12.540;2023-08-07T03:41:04;14.20;99.80
40932;DHT22;36257;46.052;12.540;2023-08-07T03:43:29;14.20;99.10
40932;DHT22;36257;46.052;12.540;2023-08-07T03:45:55;14.10;99.90
40932;DHT22;36257;46.052;12.540;2023-08-07T03:48:24;14.10;99.90
40932;DHT22;36257;46.052;12.540;2023-08-07T03:50:49;14.00;99.90
40932;DHT22;36257;46.052;12.540;2023-08-07T03:53:15;14.10;99.90
40932;DHT22;36257;46.052;12.540;2023-08-07T03:55:41;14.10;99.90
40932;DHT22;36257;46.052;12.540;2023-08-07T03:58:07;14.10;99.90
40932;DHT22;36257;46.052;12.540;2023-08-07T04:00:33;14.10;99.90
40932;DHT22;36257;46.052;12.540;2023-08-07T04:02:59;14.10;99.90
40932;DHT22;36257;46.052;12.540;2023-08-07T04:05:25;14.10;99.90
40932;DHT22;36257;46.052;12.540;2023-08-07T04:07:51;14.00;99.90
40932;DHT22;36257;46.052;12.540;2023-08-07T04:10:16;13.90;99.90
40932;DHT22;36257;46.052;12.540;2023-08-07T04:12:42;13.90;99.90
40932;DHT22;36257;46.052;12.540;2023-08-07T04:15:08;13.90;99.90
40932;DHT22;36257;46.052;12.540;2023-08-07T04:17:35;13.90;99.90
40932;DHT22;36257;46.052;12.540;2023-08-07T04:20:01;14.00;99.90
40932;DHT22;36257;46.052;12.540;2023-08-07T04:22:28;13.90;99.90
40932;DHT22;36257;46.052;12.540;2023-08-07T04:24:54;13.90;99.90
40932;DHT22;36257;46.052;12.540;2023-08-07T04:27:20;13.90;99.90
40932;DHT22;36257;46.052;12.540;2023-08-07T04:29:45;13.90;99.90
40932;DHT22;36257;46.052;12.540;2023-08-07T04:32:11;13.80;99.90
40932;DHT22;36257;46.052;12.540;2023-08-07T04:34:37;13.80;99.90
40932;DHT22;36257;46.052;12.540;2023-08-07T04:37:02;13.80;99.90
40932;DHT22;36257;46.052;12.540;2023-08-07T04:39:28;13.90;99.90
40932;DHT22;36257;46.052;12.540;2023-08-07T04:41:54;14.00;99.90
40932;DHT22;36257;46.052;12.540;2023-08-07T04:44:19;14.00;99.90
40932;DHT22;36257;46.052;12.540;2023-08-07T04:46:45;14.10;99.90
40932;DHT22;36257;46.052;12.540;2023-08-07T04:49:10;14.20;99.90
40932;DHT22;36257;46.052;12.540;2023-08-07T04:51:36;14.20;99.90
40932;DHT22;36257;46.052;12.540;2023-08-07T04:54:02;14.30;99.90
40932;DHT22;36257;46.052;12.540;2023-08-07T04:56:28;14.40;99.90
40932;DHT22;36257;46.052;12.540;2023-08-07T04:58:53;14.50;99.90
40932;DHT22;36257;46.052;12.540;2023-08-07T05:01:19;14.60;99.90
40932;DHT22;36257;46.052;12.540;2023-08-07T05:03:45;14.60;99.90
40932;DHT22;36257;46.052;12.540;2023-08-07T05:06:10;14.70;99.90
40932;DHT22;36257;46.052;12.540;2023-08-07T05:08:36;14.60;99.90
40932;DHT22;36257;46.052;12.540;2023-08-07T05:11:01;14.60;99.90
40932;DHT22;36257;46.052;12.540;2023-08-07T05:13:27;14.70;99.90
40932;DHT22;36257;46.052;12.540;2023-08-07T05:15:52;14.70;99.90
40932;DHT22;36257;46.052;12.540;2023-08-07T05:18:18;14.80;99.90
40932;DHT22;36257;46.052;12.540;2023-08-07T05:20:44;14.80;99.90
40932;DHT22;36257;46.052;12.540;2023-08-07T05:23:10;15.00;99.90
40932;DHT22;36257;46.052;12.540;2023-08-07T05:25:36;15.10;99.90
40932;DHT22;36257;46.052;12.540;2023-08-07T05:28:02;15.20;99.90
40932;DHT22;36257;46.052;12.540;2023-08-07T05:30:28;15.30;99.90
40932;DHT22;36257;46.052;12.540;2023-08-07T05:32:54;15.40;99.40
40932;DHT22;36257;46.052;12.540;2023-08-07T05:35:20;15.60;98.40
40932;DHT22;36257;46.052;12.540;2023-08-07T05:37:46;15.80;99.90
40932;DHT22;36257;46.052;12.540;2023-08-07T05:40:11;16.10;99.90
40932;DHT22;36257;46.052;12.540;2023-08-07T05:42:37;16.30;99.90
40932;DHT22;36257;46.052;12.540;2023-08-07T05:45:03;16.50;99.90
40932;DHT22;36257;46.052;12.540;2023-08-07T05:47:29;16.70;99.30
40932;DHT22;36257;46.052;12.540;2023-08-07T05:49:55;16.70;99.50
40932;DHT22;36257;46.052;12.540;2023-08-07T05:52:20;16.90;99.70
40932;DHT22;36257;46.052;12.540;2023-08-07T05:54:46;17.10;99.50
40932;DHT22;36257;46.052;12.540;2023-08-07T05:57:13;17.20;97.70
40932;DHT22;36257;46.052;12.540;2023-08-07T05:59:38;17.30;98.60
40932;DHT22;36257;46.052;12.540;2023-08-07T06:02:06;17.40;98.80
40932;DHT22;36257;46.052;12.540;2023-08-07T06:04:32;17.40;99.10
40932;DHT22;36257;46.052;12.540;2023-08-07T06:07:09;17.60;99.20
40932;DHT22;36257;46.052;12.540;2023-08-07T06:09:36;17.70;98.20
40932;DHT22;36257;46.052;12.540;2023-08-07T06:12:02;18.00;99.20
40932;DHT22;36257;46.052;12.540;2023-08-07T06:14:27;18.20;98.60
40932;DHT22;36257;46.052;12.540;2023-08-07T06:16:54;18.40;97.90
40932;DHT22;36257;46.052;12.540;2023-08-07T06:19:20;18.60;96.10
40932;DHT22;36257;46.052;12.540;2023-08-07T06:21:47;18.60;95.30
40932;DHT22;36257;46.052;12.540;2023-08-07T06:24:13;18.70;94.80
40932;DHT22;36257;46.052;12.540;2023-08-07T06:26:39;18.80;96.20
40932;DHT22;36257;46.052;12.540;2023-08-07T06:29:04;18.90;95.80
40932;DHT22;36257;46.052;12.540;2023-08-07T06:31:30;19.10;94.50
40932;DHT22;36257;46.052;12.540;2023-08-07T06:33:55;19.20;94.90
40932;DHT22;36257;46.052;12.540;2023-08-07T06:36:21;19.30;95.50
40932;DHT22;36257;46.052;12.540;2023-08-07T06:38:47;19.40;96.20
40932;DHT22;36257;46.052;12.540;2023-08-07T06:41:13;19.70;96.70
40932;DHT22;36257;46.052;12.540;2023-08-07T06:43:38;19.90;97.30
40932;DHT22;36257;46.052;12.540;2023-08-07T06:46:04;20.10;95.60
40932;DHT22;36257;46.052;12.540;2023-08-07T06:48:30;20.40;93.40
40932;DHT22;36257;46.052;12.540;2023-08-07T06:50:55;20.60;93.40
40932;DHT22;36257;46.052;12.540;2023-08-07T06:53:21;20.80;93.50
40932;DHT22;36257;46.052;12.540;2023-08-07T06:55:47;20.80;93.70
40932;DHT22;36257;46.052;12.540;2023-08-07T06:58:12;21.00;92.70
40932;DHT22;36257;46.052;12.540;2023-08-07T07:00:38;21.10;92.40
40932;DHT22;36257;46.052;12.540;2023-08-07T07:03:04;21.00;92.30
40932;DHT22;36257;46.052;12.540;2023-08-07T07:05:30;21.00;93.10
40932;DHT22;36257;46.052;12.540;2023-08-07T07:07:56;21.00;93.90
40932;DHT22;36257;46.052;12.540;2023-08-07T07:10:22;21.10;91.40
40932;DHT22;36257;46.052;12.540;2023-08-07T07:12:48;21.10;88.40
40932;DHT22;36257;46.052;12.540;2023-08-07T07:15:14;21.10;90.70
40932;DHT22;36257;46.052;12.540;2023-08-07T07:17:39;21.20;88.60
40932;DHT22;36257;46.052;12.540;2023-08-07T07:20:06;21.10;88.50
40932;DHT22;36257;46.052;12.540;2023-08-07T07:22:31;21.20;88.50
40932;DHT22;36257;46.052;12.540;2023-08-07T07:24:57;21.30;89.60
40932;DHT22;36257;46.052;12.540;2023-08-07T07:27:23;21.50;91.00
40932;DHT22;36257;46.052;12.540;2023-08-07T07:29:51;21.60;86.80
40932;DHT22;36257;46.052;12.540;2023-08-07T07:32:17;21.80;88.80
40932;DHT22;36257;46.052;12.540;2023-08-07T07:34:43;22.10;89.80
40932;DHT22;36257;46.052;12.540;2023-08-07T07:37:09;22.30;86.50
40932;DHT22;36257;46.052;12.540;2023-08-07T07:39:35;22.30;85.30
40932;DHT22;36257;46.052;12.540;2023-08-07T07:42:01;22.40;86.40
40932;DHT22;36257;46.052;12.540;2023-08-07T07:44:28;22.60;86.10
40932;DHT22;36257;46.052;12.540;2023-08-07T07:46:54;22.70;84.80
40932;DHT22;36257;46.052;12.540;2023-08-07T07:49:20;22.90;85.50
40932;DHT22;36257;46.052;12.540;2023-08-07T07:51:45;23.10;85.60
40932;DHT22;36257;46.052;12.540;2023-08-07T07:54:11;23.30;84.00
40932;DHT22;36257;46.052;12.540;2023-08-07T07:56:37;23.50;84.50
40932;DHT22;36257;46.052;12.540;2023-08-07T07:59:03;23.50;82.20
40932;DHT22;36257;46.052;12.540;2023-08-07T08:01:29;23.50;81.20
40932;DHT22;36257;46.052;12.540;2023-08-07T08:03:54;23.60;83.60
40932;DHT22;36257;46.052;12.540;2023-08-07T08:06:20;23.70;82.60
40932;DHT22;36257;46.052;12.540;2023-08-07T08:08:46;23.80;84.10
40932;DHT22;36257;46.052;12.540;2023-08-07T08:11:11;24.00;85.90
40932;DHT22;36257;46.052;12.540;2023-08-07T08:13:37;24.30;84.80
40932;DHT22;36257;46.052;12.540;2023-08-07T08:16:05;24.50;81.00
40932;DHT22;36257;46.052;12.540;2023-08-07T08:18:30;24.40;83.60
40932;DHT22;36257;46.052;12.540;2023-08-07T08:20:56;24.30;81.30
40932;DHT22;36257;46.052;12.540;2023-08-07T08:23:22;24.20;83.60
40932;DHT22;36257;46.052;12.540;2023-08-07T08:25:48;24.30;81.40
40932;DHT22;36257;46.052;12.540;2023-08-07T08:28:14;24.50;82.40
40932;DHT22;36257;46.052;12.540;2023-08-07T08:30:39;24.70;85.40
40932;DHT22;36257;46.052;12.540;2023-08-07T08:33:05;25.00;84.80
40932;DHT22;36257;46.052;12.540;2023-08-07T08:35:31;25.10;82.30
40932;DHT22;36257;46.052;12.540;2023-08-07T08:37:57;25.30;85.80
40932;DHT22;36257;46.052;12.540;2023-08-07T08:40:24;25.60;80.20
40932;DHT22;36257;46.052;12.540;2023-08-07T08:42:50;25.70;77.80
40932;DHT22;36257;46.052;12.540;2023-08-07T08:45:19;25.70;76.60
40932;DHT22;36257;46.052;12.540;2023-08-07T08:47:46;25.50;79.40
40932;DHT22;36257;46.052;12.540;2023-08-07T08:50:14;25.60;79.00
40932;DHT22;36257;46.052;12.540;2023-08-07T08:52:44;25.90;81.20
40932;DHT22;36257;46.052;12.540;2023-08-07T08:55:12;26.30;80.90
40932;DHT22;36257;46.052;12.540;2023-08-07T08:57:38;26.40;77.60
40932;DHT22;36257;46.052;12.540;2023-08-07T09:00:09;26.50;78.80
40932;DHT22;36257;46.052;12.540;2023-08-07T09:02:44;26.70;75.50
40932;DHT22;36257;46.052;12.540;2023-08-07T09:05:10;26.90;75.40
40932;DHT22;36257;46.052;12.540;2023-08-07T09:07:36;27.10;77.30
40932;DHT22;36257;46.052;12.540;2023-08-07T09:10:03;27.30;77.70
40932;DHT22;36257;46.052;12.540;2023-08-07T09:12:32;27.40;77.30
40932;DHT22;36257;46.052;12.540;2023-08-07T09:14:58;27.50;75.60
40932;DHT22;36257;46.052;12.540;2023-08-07T09:17:28;27.50;76.60
40932;DHT22;36257;46.052;12.540;2023-08-07T09:19:54;27.60;73.30
40932;DHT22;36257;46.052;12.540;2023-08-07T09:22:20;27.60;73.60
40932;DHT22;36257;46.052;12.540;2023-08-07T09:24:46;27.70;77.10
40932;DHT22;36257;46.052;12.540;2023-08-07T09:27:12;27.50;71.50
40932;DHT22;36257;46.052;12.540;2023-08-07T09:29:41;27.20;71.20
40932;DHT22;36257;46.052;12.540;2023-08-07T09:32:17;27.00;73.10
40932;DHT22;36257;46.052;12.540;2023-08-07T09:34:44;26.70;72.30
40932;DHT22;36257;46.052;12.540;2023-08-07T09:37:09;26.70;77.30
40932;DHT22;36257;46.052;12.540;2023-08-07T09:39:40;26.80;76.80
40932;DHT22;36257;46.052;12.540;2023-08-07T09:42:13;27.30;79.60
40932;DHT22;36257;46.052;12.540;2023-08-07T09:44:41;27.70;74.90
40932;DHT22;36257;46.052;12.540;2023-08-07T09:47:16;28.00;71.20
40932;DHT22;36257;46.052;12.540;2023-08-07T09:49:43;28.20;77.30
40932;DHT22;36257;46.052;12.540;2023-08-07T09:52:11;28.50;74.80
40932;DHT22;36257;46.052;12.540;2023-08-07T09:54:38;28.50;73.30
40932;DHT22;36257;46.052;12.540;2023-08-07T09:57:04;28.80;73.30
40932;DHT22;36257;46.052;12.540;2023-08-07T09:59:32;29.00;73.40
40932;DHT22;36257;46.052;12.540;2023-08-07T10:01:57;29.00;68.90
40932;DHT22;36257;46.052;12.540;2023-08-07T10:04:25;28.90;68.50
40932;DHT22;36257;46.052;12.540;2023-08-07T10:06:51;28.90;70.50
40932;DHT22;36257;46.052;12.540;2023-08-07T10:58:38;29.80;68.80
40932;DHT22;36257;46.052;12.540;2023-08-07T11:14:02;30.60;65.20
40932;DHT22;36257;46.052;12.540;2023-08-07T13:49:53;29.80;59.70
40932;DHT22;36257;46.052;12.540;2023-08-07T13:52:23;29.60;59.70
40932;DHT22;36257;46.052;12.540;2023-08-07T13:54:50;29.60;59.40
40932;DHT22;36257;46.052;12.540;2023-08-07T13:57:16;29.60;60.60
40932;DHT22;36257;46.052;12.540;2023-08-07T13:59:42;29.80;59.80
40932;DHT22;36257;46.052;12.540;2023-08-07T14:02:07;29.80;58.80
40932;DHT22;36257;46.052;12.540;2023-08-07T14:04:33;29.90;59.60
40932;DHT22;36257;46.052;12.540;2023-08-07T14:45:55;28.00;61.10
40932;DHT22;36257;46.052;12.540;2023-08-07T14:48:21;28.00;61.70
40932;DHT22;36257;46.052;12.540;2023-08-07T14:50:46;27.80;61.80
40932;DHT22;36257;46.052;12.540;2023-08-07T14:53:12;27.80;59.80
40932;DHT22;36257;46.052;12.540;2023-08-07T14:55:38;27.70;60.50
40932;DHT22;36257;46.052;12.540;2023-08-07T14:58:03;27.60;62.30
40932;DHT22;36257;46.052;12.540;2023-08-07T15:00:29;27.50;60.90
40932;DHT22;36257;46.052;12.540;2023-08-07T15:02:56;27.40;59.70
40932;DHT22;36257;46.052;12.540;2023-08-07T15:05:23;27.30;60.40
40932;DHT22;36257;46.052;12.540;2023-08-07T15:07:49;27.10;61.60
40932;DHT22;36257;46.052;12.540;2023-08-07T15:10:14;26.90;63.00
40932;DHT22;36257;46.052;12.540;2023-08-07T15:12:40;26.80;62.80
40932;DHT22;36257;46.052;12.540;2023-08-07T15:15:06;26.80;64.90
40932;DHT22;36257;46.052;12.540;2023-08-07T15:17:32;26.90;65.30
40932;DHT22;36257;46.052;12.540;2023-08-07T15:19:58;26.90;64.90
40932;DHT22;36257;46.052;12.540;2023-08-07T15:22:23;26.90;64.70
40932;DHT22;36257;46.052;12.540;2023-08-07T15:24:49;26.90;64.00
40932;DHT22;36257;46.052;12.540;2023-08-07T15:27:15;26.90;64.50
40932;DHT22;36257;46.052;12.540;2023-08-07T15:29:44;26.90;64.20
40932;DHT22;36257;46.052;12.540;2023-08-07T15:32:11;26.90;63.90
40932;DHT22;36257;46.052;12.540;2023-08-07T15:34:39;26.80;65.30
40932;DHT22;36257;46.052;12.540;2023-08-07T15:37:05;26.60;65.60
40932;DHT22;36257;46.052;12.540;2023-08-07T15:39:30;26.40;65.80
40932;DHT22;36257;46.052;12.540;2023-08-07T15:41:56;26.20;67.60
40932;DHT22;36257;46.052;12.540;2023-08-07T15:44:22;26.10;69.30
40932;DHT22;36257;46.052;12.540;2023-08-07T15:46:47;26.10;69.00
40932;DHT22;36257;46.052;12.540;2023-08-07T15:49:13;26.00;68.60
40932;DHT22;36257;46.052;12.540;2023-08-07T15:51:39;26.00;67.30
40932;DHT22;36257;46.052;12.540;2023-08-07T15:54:04;26.00;67.60
40932;DHT22;36257;46.052;12.540;2023-08-07T15:56:30;25.90;68.10
40932;DHT22;36257;46.052;12.540;2023-08-07T15:58:56;26.00;68.00
40932;DHT22;36257;46.052;12.540;2023-08-07T16:01:21;26.00;68.90
40932;DHT22;36257;46.052;12.540;2023-08-07T16:03:47;26.00;68.40
40932;DHT22;36257;46.052;12.540;2023-08-07T16:06:13;25.90;68.40
40932;DHT22;36257;46.052;12.540;2023-08-07T16:08:38;25.90;68.40
40932;DHT22;36257;46.052;12.540;2023-08-07T16:11:04;25.90;69.60
40932;DHT22;36257;46.052;12.540;2023-08-07T16:13:30;25.90;73.00
40932;DHT22;36257;46.052;12.540;2023-08-07T16:15:56;25.80;73.70
40932;DHT22;36257;46.052;12.540;2023-08-07T16:18:22;25.60;74.00
40932;DHT22;36257;46.052;12.540;2023-08-07T16:20:48;25.60;74.90
40932;DHT22;36257;46.052;12.540;2023-08-07T16:23:13;25.50;74.80
40932;DHT22;36257;46.052;12.540;2023-08-07T16:25:39;25.40;74.50
40932;DHT22;36257;46.052;12.540;2023-08-07T16:28:05;25.30;75.20
40932;DHT22;36257;46.052;12.540;2023-08-07T16:30:31;25.20;76.20
40932;DHT22;36257;46.052;12.540;2023-08-07T16:32:56;25.00;75.90
40932;DHT22;36257;46.052;12.540;2023-08-07T16:35:22;24.90;76.00
40932;DHT22;36257;46.052;12.540;2023-08-07T16:37:48;24.70;77.00
40932;DHT22;36257;46.052;12.540;2023-08-07T16:40:13;24.50;77.90
40932;DHT22;36257;46.052;12.540;2023-08-07T16:42:39;24.30;77.90
40932;DHT22;36257;46.052;12.540;2023-08-07T16:45:05;24.10;77.50
40932;DHT22;36257;46.052;12.540;2023-08-07T16:47:31;24.00;78.10
40932;DHT22;36257;46.052;12.540;2023-08-07T16:49:57;23.90;78.50
40932;DHT22;36257;46.052;12.540;2023-08-07T16:52:25;23.80;78.60
40932;DHT22;36257;46.052;12.540;2023-08-07T16:54:50;23.70;79.60
40932;DHT22;36257;46.052;12.540;2023-08-07T16:57:19;23.70;80.00
40932;DHT22;36257;46.052;12.540;2023-08-07T16:59:45;23.60;79.50
40932;DHT22;36257;46.052;12.540;2023-08-07T17:02:14;23.60;80.10
40932;DHT22;36257;46.052;12.540;2023-08-07T17:04:41;23.60;79.80
40932;DHT22;36257;46.052;12.540;2023-08-07T17:07:07;23.60;79.70
40932;DHT22;36257;46.052;12.540;2023-08-07T17:09:33;23.60;79.70
40932;DHT22;36257;46.052;12.540;2023-08-07T17:11:59;23.60;80.10
40932;DHT22;36257;46.052;12.540;2023-08-07T17:14:25;23.50;79.90
40932;DHT22;36257;46.052;12.540;2023-08-07T17:16:50;23.50;79.70
40932;DHT22;36257;46.052;12.540;2023-08-07T17:19:16;23.40;79.60
40932;DHT22;36257;46.052;12.540;2023-08-07T17:21:42;23.30;80.00
40932;DHT22;36257;46.052;12.540;2023-08-07T17:24:07;23.20;79.90
40932;DHT22;36257;46.052;12.540;2023-08-07T17:26:33;23.20;80.00
40932;DHT22;36257;46.052;12.540;2023-08-07T17:28:59;23.10;79.80
40932;DHT22;36257;46.052;12.540;2023-08-07T17:31:26;22.90;80.60
40932;DHT22;36257;46.052;12.540;2023-08-07T17:33:52;22.80;81.70
40932;DHT22;36257;46.052;12.540;2023-08-07T17:36:17;22.70;82.90
40932;DHT22;36257;46.052;12.540;2023-08-07T17:38:44;22.60;83.30
40932;DHT22;36257;46.052;12.540;2023-08-07T17:41:10;22.50;82.80
40932;DHT22;36257;46.052;12.540;2023-08-07T17:43:36;22.40;82.20
40932;DHT22;36257;46.052;12.540;2023-08-07T17:46:01;22.30;81.10
40932;DHT22;36257;46.052;12.540;2023-08-07T17:48:27;22.10;81.50
40932;DHT22;36257;46.052;12.540;2023-08-07T17:50:53;22.00;82.70
40932;DHT22;36257;46.052;12.540;2023-08-07T17:53:20;21.90;82.40
40932;DHT22;36257;46.052;12.540;2023-08-07T17:55:45;21.90;82.40
40932;DHT22;36257;46.052;12.540;2023-08-07T17:58:11;21.80;82.70
40932;DHT22;36257;46.052;12.540;2023-08-07T18:00:37;21.70;82.90
40932;DHT22;36257;46.052;12.540;2023-08-07T18:03:03;21.60;83.10
40932;DHT22;36257;46.052;12.540;2023-08-07T18:05:31;21.50;82.40
40932;DHT22;36257;46.052;12.540;2023-08-07T18:07:56;21.50;81.50
40932;DHT22;36257;46.052;12.540;2023-08-07T18:10:22;21.30;81.50
40932;DHT22;36257;46.052;12.540;2023-08-07T18:12:47;21.30;82.00
40932;DHT22;36257;46.052;12.540;2023-08-07T18:15:13;21.30;81.80
40932;DHT22;36257;46.052;12.540;2023-08-07T18:17:39;21.20;81.40
40932;DHT22;36257;46.052;12.540;2023-08-07T18:20:06;21.10;81.40
40932;DHT22;36257;46.052;12.540;2023-08-07T18:22:32;21.10;81.30
40932;DHT22;36257;46.052;12.540;2023-08-07T18:24:58;21.10;81.30
40932;DHT22;36257;46.052;12.540;2023-08-07T18:27:24;21.00;80.90
40932;DHT22;36257;46.052;12.540;2023-08-07T18:29:50;21.00;81.40
40932;DHT22;36257;46.052;12.540;2023-08-07T18:32:16;20.90;81.40
40932;DHT22;36257;46.052;12.540;2023-08-07T18:34:42;20.90;81.20
40932;DHT22;36257;46.052;12.540;2023-08-07T18:37:09;20.90;81.10
40932;DHT22;36257;46.052;12.540;2023-08-07T18:39:35;20.80;81.00
40932;DHT22;36257;46.052;12.540;2023-08-07T18:42:01;20.80;81.50
40932;DHT22;36257;46.052;12.540;2023-08-07T18:44:28;20.80;81.50
40932;DHT22;36257;46.052;12.540;2023-08-07T18:46:53;20.80;81.00
40932;DHT22;36257;46.052;12.540;2023-08-07T18:49:19;20.80;81.00
40932;DHT22;36257;46.052;12.540;2023-08-07T18:51:46;20.80;81.50
40932;DHT22;36257;46.052;12.540;2023-08-07T18:54:12;20.70;82.00
40932;DHT22;36257;46.052;12.540;2023-08-07T18:56:37;20.50;81.70
40932;DHT22;36257;46.052;12.540;2023-08-07T18:59:03;20.50;81.30
40932;DHT22;36257;46.052;12.540;2023-08-07T19:01:30;20.40;81.40
40932;DHT22;36257;46.052;12.540;2023-08-07T19:03:56;20.30;81.40
40932;DHT22;36257;46.052;12.540;2023-08-07T19:06:21;20.30;81.90
40932;DHT22;36257;46.052;12.540;2023-08-07T19:08:47;20.20;81.50
40932;DHT22;36257;46.052;12.540;2023-08-07T19:11:13;20.20;81.80
40932;DHT22;36257;46.052;12.540;2023-08-07T19:13:38;20.20;80.90
40932;DHT22;36257;46.052;12.540;2023-08-07T19:16:04;20.20;80.70
40932;DHT22;36257;46.052;12.540;2023-08-07T19:18:30;20.10;81.50
40932;DHT22;36257;46.052;12.540;2023-08-07T19:20:56;20.10;81.90
40932;DHT22;36257;46.052;12.540;2023-08-07T19:23:23;20.10;81.20
40932;DHT22;36257;46.052;12.540;2023-08-07T19:25:49;20.00;80.50
40932;DHT22;36257;46.052;12.540;2023-08-07T19:28:14;19.90;81.00
40932;DHT22;36257;46.052;12.540;2023-08-07T19:30:40;19.80;82.10
40932;DHT22;36257;46.052;12.540;2023-08-07T19:33:06;19.80;82.10
40932;DHT22;36257;46.052;12.540;2023-08-07T19:35:32;19.70;81.80